sensor_id;sensor_type;location;lat;lon;timestamp;P1;durP1;ratioP1;P2;durP2;ratioP2
69485;SDS011;56677;51.710;5.366;2022-08-20T00:00:55;4.93;;;2.67;;
69485;SDS011;56677;51.710;5.366;2022-08-20T00:03:24;5.55;;;2.70;;
69485;SDS011;56677;51.710;5.366;2022-08-20T00:05:56;5.37;;;2.53;;
69485;SDS011;56677;51.710;5.366;2022-08-20T00:08:22;4.90;;;2.70;;
69485;SDS011;56677;51.710;5.366;2022-08-20T00:10:48;4.93;;;2.80;;
69485;SDS011;56677;51.710;5.366;2022-08-20T00:13:18;4.88;;;2.70;;
69485;SDS011;56677;51.710;5.366;2022-08-20T00:15:44;5.05;;;2.83;;
69485;SDS011;56677;51.710;5.366;2022-08-20T00:18:09;5.33;;;2.57;;
69485;SDS011;56677;51.710;5.366;2022-08-20T00:20:36;7.38;;;3.35;;
69485;SDS011;56677;51.710;5.366;2022-08-20T00:23:02;5.75;;;2.85;;
69485;SDS011;56677;51.710;5.366;2022-08-20T00:25:27;5.50;;;2.60;;
69485;SDS011;56677;51.710;5.366;2022-08-20T00:27:53;5.57;;;2.70;;
69485;SDS011;56677;51.710;5.366;2022-08-20T00:30:18;5.07;;;2.93;;
69485;SDS011;56677;51.710;5.366;2022-08-20T00:32:44;5.87;;;3.00;;
69485;SDS011;56677;51.710;5.366;2022-08-20T00:35:11;5.47;;;3.10;;
69485;SDS011;56677;51.710;5.366;2022-08-20T00:37:36;4.77;;;2.80;;
69485;SDS011;56677;51.710;5.366;2022-08-20T00:40:01;5.57;;;3.07;;
69485;SDS011;56677;51.710;5.366;2022-08-20T00:42:27;5.07;;;2.87;;
69485;SDS011;56677;51.710;5.366;2022-08-20T00:44:52;5.20;;;2.70;;
69485;SDS011;56677;51.710;5.366;2022-08-20T00:47:17;5.50;;;2.90;;
69485;SDS011;56677;51.710;5.366;2022-08-20T00:49:42;4.85;;;2.50;;
69485;SDS011;56677;51.710;5.366;2022-08-20T00:52:15;4.97;;;2.90;;
69485;SDS011;56677;51.710;5.366;2022-08-20T00:54:52;4.82;;;2.40;;
69485;SDS011;56677;51.710;5.366;2022-08-20T00:59:43;4.90;;;2.33;;
69485;SDS011;56677;51.710;5.366;2022-08-20T01:02:11;5.87;;;2.90;;
69485;SDS011;56677;51.710;5.366;2022-08-20T01:04:36;4.93;;;2.53;;
69485;SDS011;56677;51.710;5.366;2022-08-20T01:07:02;4.57;;;2.70;;
69485;SDS011;56677;51.710;5.366;2022-08-20T01:09:28;6.50;;;3.00;;
69485;SDS011;56677;51.710;5.366;2022-08-20T01:11:53;5.70;;;2.40;;
69485;SDS011;56677;51.710;5.366;2022-08-20T01:14:19;5.05;;;2.47;;
69485;SDS011;56677;51.710;5.366;2022-08-20T01:16:44;6.20;;;2.60;;
69485;SDS011;56677;51.710;5.366;2022-08-20T01:19:10;4.90;;;2.50;;
69485;SDS011;56677;51.710;5.366;2022-08-20T01:21:35;4.80;;;2.40;;
69485;SDS011;56677;51.710;5.366;2022-08-20T01:24:04;5.40;;;2.90;;
69485;SDS011;56677;51.710;5.366;2022-08-20T01:26:38;4.93;;;2.45;;
69485;SDS011;56677;51.710;5.366;2022-08-20T01:29:06;4.43;;;2.47;;
69485;SDS011;56677;51.710;5.366;2022-08-20T01:31:33;4.60;;;2.13;;
69485;SDS011;56677;51.710;5.366;2022-08-20T01:33:59;4.18;;;2.50;;
69485;SDS011;56677;51.710;5.366;2022-08-20T01:36:30;5.25;;;2.72;;
69485;SDS011;56677;51.710;5.366;2022-08-20T01:38:56;4.63;;;2.45;;
69485;SDS011;56677;51.710;5.366;2022-08-20T01:41:24;4.57;;;2.50;;
69485;SDS011;56677;51.710;5.366;2022-08-20T01:43:53;5.97;;;3.10;;
69485;SDS011;56677;51.710;5.366;2022-08-20T01:46:18;5.00;;;2.40;;
69485;SDS011;56677;51.710;5.366;2022-08-20T01:48:43;4.68;;;2.63;;
69485;SDS011;56677;51.710;5.366;2022-08-20T01:51:16;4.17;;;2.20;;
69485;SDS011;56677;51.710;5.366;2022-08-20T01:53:46;4.50;;;2.63;;
69485;SDS011;56677;51.710;5.366;2022-08-20T01:56:12;5.65;;;2.50;;
69485;SDS011;56677;51.710;5.366;2022-08-20T01:58:39;4.80;;;2.60;;
69485;SDS011;56677;51.710;5.366;2022-08-20T02:01:06;3.75;;;2.30;;
69485;SDS011;56677;51.710;5.366;2022-08-20T02:03:31;4.83;;;2.63;;
69485;SDS011;56677;51.710;5.366;2022-08-20T02:05:59;5.37;;;2.43;;
69485;SDS011;56677;51.710;5.366;2022-08-20T02:08:24;4.97;;;2.45;;
69485;SDS011;56677;51.710;5.366;2022-08-20T02:10:50;4.60;;;2.42;;
69485;SDS011;56677;51.710;5.366;2022-08-20T02:13:15;4.47;;;2.40;;
69485;SDS011;56677;51.710;5.366;2022-08-20T02:15:40;5.90;;;2.80;;
69485;SDS011;56677;51.710;5.366;2022-08-20T02:18:06;4.05;;;2.30;;
69485;SDS011;56677;51.710;5.366;2022-08-20T02:20:32;4.75;;;2.70;;
69485;SDS011;56677;51.710;5.366;2022-08-20T02:22:58;4.57;;;2.10;;
69485;SDS011;56677;51.710;5.366;2022-08-20T02:25:25;5.43;;;2.40;;
69485;SDS011;56677;51.710;5.366;2022-08-20T02:27:51;4.70;;;2.30;;
69485;SDS011;56677;51.710;5.366;2022-08-20T02:30:18;4.82;;;2.70;;
69485;SDS011;56677;51.710;5.366;2022-08-20T02:32:44;4.28;;;2.33;;
69485;SDS011;56677;51.710;5.366;2022-08-20T02:35:09;4.53;;;2.53;;
69485;SDS011;56677;51.710;5.366;2022-08-20T02:37:36;4.47;;;2.40;;
69485;SDS011;56677;51.710;5.366;2022-08-20T02:40:02;4.13;;;2.43;;
69485;SDS011;56677;51.710;5.366;2022-08-20T02:42:28;4.18;;;2.20;;
69485;SDS011;56677;51.710;5.366;2022-08-20T02:44:53;6.67;;;2.87;;
69485;SDS011;56677;51.710;5.366;2022-08-20T02:47:18;4.93;;;2.70;;
69485;SDS011;56677;51.710;5.366;2022-08-20T02:49:43;4.57;;;2.70;;
69485;SDS011;56677;51.710;5.366;2022-08-20T02:52:08;4.10;;;2.47;;
69485;SDS011;56677;51.710;5.366;2022-08-20T02:54:33;6.07;;;2.80;;
69485;SDS011;56677;51.710;5.366;2022-08-20T02:56:58;4.90;;;2.78;;
69485;SDS011;56677;51.710;5.366;2022-08-20T02:59:23;5.70;;;2.35;;
69485;SDS011;56677;51.710;5.366;2022-08-20T03:01:48;5.47;;;2.97;;
69485;SDS011;56677;51.710;5.366;2022-08-20T03:04:14;5.68;;;2.40;;
69485;SDS011;56677;51.710;5.366;2022-08-20T03:06:39;5.28;;;2.85;;
69485;SDS011;56677;51.710;5.366;2022-08-20T03:09:04;5.20;;;2.60;;
69485;SDS011;56677;51.710;5.366;2022-08-20T03:11:29;4.10;;;2.25;;
69485;SDS011;56677;51.710;5.366;2022-08-20T03:13:54;4.05;;;2.20;;
69485;SDS011;56677;51.710;5.366;2022-08-20T03:16:19;4.22;;;2.50;;
69485;SDS011;56677;51.710;5.366;2022-08-20T03:18:45;5.78;;;2.60;;
69485;SDS011;56677;51.710;5.366;2022-08-20T03:21:10;4.97;;;2.37;;
69485;SDS011;56677;51.710;5.366;2022-08-20T03:23:36;5.15;;;2.50;;
69485;SDS011;56677;51.710;5.366;2022-08-20T03:26:01;4.13;;;2.27;;
69485;SDS011;56677;51.710;5.366;2022-08-20T03:28:27;4.40;;;2.50;;
69485;SDS011;56677;51.710;5.366;2022-08-20T03:30:52;4.50;;;2.60;;
69485;SDS011;56677;51.710;5.366;2022-08-20T03:33:17;4.87;;;2.23;;
69485;SDS011;56677;51.710;5.366;2022-08-20T03:35:43;4.20;;;2.30;;
69485;SDS011;56677;51.710;5.366;2022-08-20T03:38:09;4.45;;;2.42;;
69485;SDS011;56677;51.710;5.366;2022-08-20T03:40:34;4.95;;;2.42;;
69485;SDS011;56677;51.710;5.366;2022-08-20T03:42:59;5.10;;;2.33;;
69485;SDS011;56677;51.710;5.366;2022-08-20T03:45:25;5.07;;;2.47;;
69485;SDS011;56677;51.710;5.366;2022-08-20T03:47:51;5.17;;;2.53;;
69485;SDS011;56677;51.710;5.366;2022-08-20T03:50:17;4.28;;;2.35;;
69485;SDS011;56677;51.710;5.366;2022-08-20T03:52:43;4.35;;;2.53;;
69485;SDS011;56677;51.710;5.366;2022-08-20T03:55:08;4.97;;;2.10;;
69485;SDS011;56677;51.710;5.366;2022-08-20T03:57:34;4.30;;;2.57;;
69485;SDS011;56677;51.710;5.366;2022-08-20T03:59:59;6.17;;;1.90;;
69485;SDS011;56677;51.710;5.366;2022-08-20T04:02:24;5.85;;;2.60;;
69485;SDS011;56677;51.710;5.366;2022-08-20T04:04:49;4.88;;;2.20;;
69485;SDS011;56677;51.710;5.366;2022-08-20T04:07:18;4.67;;;2.67;;
69485;SDS011;56677;51.710;5.366;2022-08-20T04:09:43;6.17;;;2.70;;
69485;SDS011;56677;51.710;5.366;2022-08-20T04:12:08;5.00;;;2.45;;
69485;SDS011;56677;51.710;5.366;2022-08-20T04:14:34;3.90;;;2.40;;
69485;SDS011;56677;51.710;5.366;2022-08-20T04:17:02;4.33;;;2.40;;
69485;SDS011;56677;51.710;5.366;2022-08-20T04:19:27;4.35;;;2.25;;
69485;SDS011;56677;51.710;5.366;2022-08-20T04:21:53;5.13;;;2.47;;
69485;SDS011;56677;51.710;5.366;2022-08-20T04:24:18;5.43;;;2.38;;
69485;SDS011;56677;51.710;5.366;2022-08-20T04:26:43;5.05;;;2.13;;
69485;SDS011;56677;51.710;5.366;2022-08-20T04:29:08;4.45;;;2.47;;
69485;SDS011;56677;51.710;5.366;2022-08-20T04:31:33;4.03;;;2.35;;
69485;SDS011;56677;51.710;5.366;2022-08-20T04:34:01;4.85;;;2.17;;
69485;SDS011;56677;51.710;5.366;2022-08-20T04:36:27;3.80;;;2.10;;
69485;SDS011;56677;51.710;5.366;2022-08-20T04:38:52;4.07;;;2.13;;
69485;SDS011;56677;51.710;5.366;2022-08-20T04:41:18;3.85;;;2.25;;
69485;SDS011;56677;51.710;5.366;2022-08-20T04:43:43;4.10;;;2.15;;
69485;SDS011;56677;51.710;5.366;2022-08-20T04:46:08;5.60;;;2.50;;
69485;SDS011;56677;51.710;5.366;2022-08-20T04:48:33;4.23;;;2.10;;
69485;SDS011;56677;51.710;5.366;2022-08-20T04:50:58;4.25;;;2.15;;
69485;SDS011;56677;51.710;5.366;2022-08-20T04:53:25;4.43;;;2.30;;
69485;SDS011;56677;51.710;5.366;2022-08-20T04:55:50;3.78;;;1.85;;
69485;SDS011;56677;51.710;5.366;2022-08-20T04:58:17;3.97;;;2.05;;
69485;SDS011;56677;51.710;5.366;2022-08-20T05:00:50;4.50;;;2.57;;
69485;SDS011;56677;51.710;5.366;2022-08-20T05:03:16;3.67;;;2.30;;
69485;SDS011;56677;51.710;5.366;2022-08-20T05:05:42;4.55;;;2.15;;
69485;SDS011;56677;51.710;5.366;2022-08-20T05:08:07;4.07;;;2.10;;
69485;SDS011;56677;51.710;5.366;2022-08-20T05:10:32;4.88;;;2.45;;
69485;SDS011;56677;51.710;5.366;2022-08-20T05:12:58;4.37;;;2.30;;
69485;SDS011;56677;51.710;5.366;2022-08-20T05:15:23;5.80;;;2.30;;
69485;SDS011;56677;51.710;5.366;2022-08-20T05:17:53;3.73;;;2.17;;
69485;SDS011;56677;51.710;5.366;2022-08-20T05:20:18;4.73;;;2.30;;
69485;SDS011;56677;51.710;5.366;2022-08-20T05:22:43;4.60;;;2.28;;
69485;SDS011;56677;51.710;5.366;2022-08-20T05:25:08;3.97;;;2.00;;
69485;SDS011;56677;51.710;5.366;2022-08-20T05:27:34;4.00;;;2.10;;
69485;SDS011;56677;51.710;5.366;2022-08-20T05:30:06;4.57;;;2.40;;
69485;SDS011;56677;51.710;5.366;2022-08-20T05:32:32;4.40;;;2.13;;
69485;SDS011;56677;51.710;5.366;2022-08-20T05:34:58;5.03;;;2.03;;
69485;SDS011;56677;51.710;5.366;2022-08-20T05:37:23;3.60;;;2.03;;
69485;SDS011;56677;51.710;5.366;2022-08-20T05:39:48;3.58;;;2.00;;
69485;SDS011;56677;51.710;5.366;2022-08-20T05:42:13;3.80;;;2.05;;
69485;SDS011;56677;51.710;5.366;2022-08-20T05:44:38;4.77;;;2.30;;
69485;SDS011;56677;51.710;5.366;2022-08-20T05:47:04;4.82;;;2.17;;
69485;SDS011;56677;51.710;5.366;2022-08-20T05:49:29;4.50;;;2.47;;
69485;SDS011;56677;51.710;5.366;2022-08-20T05:51:54;3.50;;;1.90;;
69485;SDS011;56677;51.710;5.366;2022-08-20T05:54:19;3.55;;;2.08;;
69485;SDS011;56677;51.710;5.366;2022-08-20T05:56:44;4.53;;;2.10;;
69485;SDS011;56677;51.710;5.366;2022-08-20T05:59:10;4.20;;;2.08;;
69485;SDS011;56677;51.710;5.366;2022-08-20T06:01:35;3.93;;;2.00;;
69485;SDS011;56677;51.710;5.366;2022-08-20T06:04:01;4.07;;;2.25;;
69485;SDS011;56677;51.710;5.366;2022-08-20T06:06:26;4.57;;;1.90;;
69485;SDS011;56677;51.710;5.366;2022-08-20T06:08:51;6.25;;;2.03;;
69485;SDS011;56677;51.710;5.366;2022-08-20T06:11:16;5.57;;;2.00;;
69485;SDS011;56677;51.710;5.366;2022-08-20T06:13:41;5.30;;;2.42;;
69485;SDS011;56677;51.710;5.366;2022-08-20T06:16:06;5.68;;;2.30;;
69485;SDS011;56677;51.710;5.366;2022-08-20T06:18:32;3.72;;;2.10;;
69485;SDS011;56677;51.710;5.366;2022-08-20T06:20:57;6.35;;;2.33;;
69485;SDS011;56677;51.710;5.366;2022-08-20T06:23:22;8.38;;;2.40;;
69485;SDS011;56677;51.710;5.366;2022-08-20T06:25:47;5.60;;;2.17;;
69485;SDS011;56677;51.710;5.366;2022-08-20T06:28:13;7.15;;;2.10;;
69485;SDS011;56677;51.710;5.366;2022-08-20T06:30:38;6.03;;;2.37;;
69485;SDS011;56677;51.710;5.366;2022-08-20T06:33:03;5.43;;;2.87;;
69485;SDS011;56677;51.710;5.366;2022-08-20T06:35:28;5.30;;;2.47;;
69485;SDS011;56677;51.710;5.366;2022-08-20T06:37:53;5.40;;;3.00;;
69485;SDS011;56677;51.710;5.366;2022-08-20T06:40:20;7.38;;;2.45;;
69485;SDS011;56677;51.710;5.366;2022-08-20T06:42:45;4.93;;;2.38;;
69485;SDS011;56677;51.710;5.366;2022-08-20T06:45:11;5.22;;;2.47;;
69485;SDS011;56677;51.710;5.366;2022-08-20T06:47:40;8.18;;;4.63;;
69485;SDS011;56677;51.710;5.366;2022-08-20T06:50:09;9.97;;;4.23;;
69485;SDS011;56677;51.710;5.366;2022-08-20T06:52:35;13.10;;;5.30;;
69485;SDS011;56677;51.710;5.366;2022-08-20T06:55:00;12.65;;;5.50;;
69485;SDS011;56677;51.710;5.366;2022-08-20T06:57:25;8.75;;;5.28;;
69485;SDS011;56677;51.710;5.366;2022-08-20T06:59:53;10.63;;;5.35;;
69485;SDS011;56677;51.710;5.366;2022-08-20T07:02:18;12.18;;;5.25;;
69485;SDS011;56677;51.710;5.366;2022-08-20T07:04:43;12.20;;;5.03;;
69485;SDS011;56677;51.710;5.366;2022-08-20T07:07:14;9.70;;;5.50;;
69485;SDS011;56677;51.710;5.366;2022-08-20T07:09:39;12.40;;;5.15;;
69485;SDS011;56677;51.710;5.366;2022-08-20T07:12:04;13.00;;;5.30;;
69485;SDS011;56677;51.710;5.366;2022-08-20T07:14:30;8.63;;;5.10;;
69485;SDS011;56677;51.710;5.366;2022-08-20T07:16:55;10.20;;;5.05;;
69485;SDS011;56677;51.710;5.366;2022-08-20T07:19:20;9.10;;;4.72;;
69485;SDS011;56677;51.710;5.366;2022-08-20T07:21:45;7.25;;;4.07;;
69485;SDS011;56677;51.710;5.366;2022-08-20T07:24:10;7.43;;;3.60;;
69485;SDS011;56677;51.710;5.366;2022-08-20T07:26:35;9.15;;;3.50;;
69485;SDS011;56677;51.710;5.366;2022-08-20T07:29:00;8.40;;;3.63;;
69485;SDS011;56677;51.710;5.366;2022-08-20T07:31:25;5.30;;;2.63;;
69485;SDS011;56677;51.710;5.366;2022-08-20T07:33:50;8.40;;;2.53;;
69485;SDS011;56677;51.710;5.366;2022-08-20T07:36:16;6.50;;;2.65;;
69485;SDS011;56677;51.710;5.366;2022-08-20T07:38:41;6.55;;;2.65;;
69485;SDS011;56677;51.710;5.366;2022-08-20T07:41:07;8.15;;;2.78;;
69485;SDS011;56677;51.710;5.366;2022-08-20T07:43:32;7.00;;;2.95;;
69485;SDS011;56677;51.710;5.366;2022-08-20T07:45:58;8.43;;;2.65;;
69485;SDS011;56677;51.710;5.366;2022-08-20T07:48:23;7.13;;;2.78;;
69485;SDS011;56677;51.710;5.366;2022-08-20T07:50:49;8.73;;;2.73;;
69485;SDS011;56677;51.710;5.366;2022-08-20T07:53:14;8.82;;;3.85;;
69485;SDS011;56677;51.710;5.366;2022-08-20T07:55:39;7.23;;;3.57;;
69485;SDS011;56677;51.710;5.366;2022-08-20T07:58:06;8.18;;;4.20;;
69485;SDS011;56677;51.710;5.366;2022-08-20T08:00:32;9.52;;;3.63;;
69485;SDS011;56677;51.710;5.366;2022-08-20T08:02:57;9.33;;;4.30;;
69485;SDS011;56677;51.710;5.366;2022-08-20T08:05:22;8.60;;;3.97;;
69485;SDS011;56677;51.710;5.366;2022-08-20T08:07:47;8.98;;;3.63;;
69485;SDS011;56677;51.710;5.366;2022-08-20T08:10:14;9.77;;;3.85;;
69485;SDS011;56677;51.710;5.366;2022-08-20T08:12:41;8.40;;;4.03;;
69485;SDS011;56677;51.710;5.366;2022-08-20T08:15:09;6.77;;;3.80;;
69485;SDS011;56677;51.710;5.366;2022-08-20T08:17:34;7.45;;;3.30;;
69485;SDS011;56677;51.710;5.366;2022-08-20T08:20:00;8.40;;;2.90;;
69485;SDS011;56677;51.710;5.366;2022-08-20T08:22:25;6.90;;;2.63;;
69485;SDS011;56677;51.710;5.366;2022-08-20T08:24:50;6.33;;;2.57;;
69485;SDS011;56677;51.710;5.366;2022-08-20T08:27:15;6.07;;;2.67;;
69485;SDS011;56677;51.710;5.366;2022-08-20T08:29:40;5.88;;;2.83;;
69485;SDS011;56677;51.710;5.366;2022-08-20T08:32:05;5.07;;;2.30;;
69485;SDS011;56677;51.710;5.366;2022-08-20T08:34:31;5.23;;;2.70;;
69485;SDS011;56677;51.710;5.366;2022-08-20T08:36:57;6.82;;;2.83;;
69485;SDS011;56677;51.710;5.366;2022-08-20T08:39:22;5.60;;;2.58;;
69485;SDS011;56677;51.710;5.366;2022-08-20T08:41:48;6.23;;;2.87;;
69485;SDS011;56677;51.710;5.366;2022-08-20T08:44:14;5.30;;;2.70;;
69485;SDS011;56677;51.710;5.366;2022-08-20T08:46:41;6.65;;;2.60;;
69485;SDS011;56677;51.710;5.366;2022-08-20T08:49:09;6.03;;;3.00;;
69485;SDS011;56677;51.710;5.366;2022-08-20T08:51:39;6.50;;;2.72;;
69485;SDS011;56677;51.710;5.366;2022-08-20T08:54:06;4.70;;;2.60;;
69485;SDS011;56677;51.710;5.366;2022-08-20T08:56:31;5.47;;;2.40;;
69485;SDS011;56677;51.710;5.366;2022-08-20T08:58:59;4.77;;;2.63;;
69485;SDS011;56677;51.710;5.366;2022-08-20T09:01:25;5.10;;;2.35;;
69485;SDS011;56677;51.710;5.366;2022-08-20T09:03:50;6.20;;;2.67;;
69485;SDS011;56677;51.710;5.366;2022-08-20T09:06:18;4.60;;;2.80;;
69485;SDS011;56677;51.710;5.366;2022-08-20T09:08:45;4.93;;;2.65;;
69485;SDS011;56677;51.710;5.366;2022-08-20T09:11:11;7.90;;;2.42;;
69485;SDS011;56677;51.710;5.366;2022-08-20T09:13:37;6.87;;;2.47;;
69485;SDS011;56677;51.710;5.366;2022-08-20T09:16:02;7.82;;;2.30;;
69485;SDS011;56677;51.710;5.366;2022-08-20T09:18:27;6.57;;;2.43;;
69485;SDS011;56677;51.710;5.366;2022-08-20T09:20:52;4.93;;;2.20;;
69485;SDS011;56677;51.710;5.366;2022-08-20T09:23:17;7.93;;;2.60;;
69485;SDS011;56677;51.710;5.366;2022-08-20T09:25:42;4.50;;;2.30;;
69485;SDS011;56677;51.710;5.366;2022-08-20T09:28:07;5.17;;;2.30;;
69485;SDS011;56677;51.710;5.366;2022-08-20T09:30:33;4.70;;;2.13;;
69485;SDS011;56677;51.710;5.366;2022-08-20T09:32:58;5.60;;;2.38;;
69485;SDS011;56677;51.710;5.366;2022-08-20T09:35:23;4.33;;;2.10;;
69485;SDS011;56677;51.710;5.366;2022-08-20T09:37:49;4.27;;;1.93;;
69485;SDS011;56677;51.710;5.366;2022-08-20T09:40:14;7.80;;;2.25;;
69485;SDS011;56677;51.710;5.366;2022-08-20T09:42:39;7.75;;;2.47;;
69485;SDS011;56677;51.710;5.366;2022-08-20T09:45:04;8.47;;;2.00;;
69485;SDS011;56677;51.710;5.366;2022-08-20T09:47:30;7.63;;;1.80;;
69485;SDS011;56677;51.710;5.366;2022-08-20T09:49:55;7.90;;;1.92;;
69485;SDS011;56677;51.710;5.366;2022-08-20T09:52:23;7.80;;;2.45;;
69485;SDS011;56677;51.710;5.366;2022-08-20T09:54:49;5.80;;;1.65;;
69485;SDS011;56677;51.710;5.366;2022-08-20T09:57:14;5.83;;;1.97;;
69485;SDS011;56677;51.710;5.366;2022-08-20T09:59:40;5.60;;;1.90;;
69485;SDS011;56677;51.710;5.366;2022-08-20T10:02:05;9.87;;;1.80;;
69485;SDS011;56677;51.710;5.366;2022-08-20T10:04:30;8.15;;;2.50;;
69485;SDS011;56677;51.710;5.366;2022-08-20T10:06:55;11.00;;;2.50;;
69485;SDS011;56677;51.710;5.366;2022-08-20T10:09:20;6.83;;;2.00;;
69485;SDS011;56677;51.710;5.366;2022-08-20T10:11:45;7.60;;;2.00;;
69485;SDS011;56677;51.710;5.366;2022-08-20T10:14:10;6.68;;;1.70;;
69485;SDS011;56677;51.710;5.366;2022-08-20T10:16:36;7.55;;;2.08;;
69485;SDS011;56677;51.710;5.366;2022-08-20T10:19:01;8.10;;;1.80;;
69485;SDS011;56677;51.710;5.366;2022-08-20T10:21:26;6.70;;;1.80;;
69485;SDS011;56677;51.710;5.366;2022-08-20T10:23:52;4.10;;;1.53;;
69485;SDS011;56677;51.710;5.366;2022-08-20T10:26:17;7.22;;;1.98;;
69485;SDS011;56677;51.710;5.366;2022-08-20T10:28:42;7.85;;;2.17;;
69485;SDS011;56677;51.710;5.366;2022-08-20T10:31:08;7.70;;;2.35;;
69485;SDS011;56677;51.710;5.366;2022-08-20T10:33:34;5.40;;;1.90;;
69485;SDS011;56677;51.710;5.366;2022-08-20T10:36:06;6.78;;;1.92;;
69485;SDS011;56677;51.710;5.366;2022-08-20T10:38:31;6.67;;;2.07;;
69485;SDS011;56677;51.710;5.366;2022-08-20T10:40:56;6.82;;;2.05;;
69485;SDS011;56677;51.710;5.366;2022-08-20T10:43:21;6.78;;;2.00;;
69485;SDS011;56677;51.710;5.366;2022-08-20T10:45:46;6.55;;;1.75;;
69485;SDS011;56677;51.710;5.366;2022-08-20T10:48:12;6.95;;;1.50;;
69485;SDS011;56677;51.710;5.366;2022-08-20T10:50:37;6.47;;;2.28;;
69485;SDS011;56677;51.710;5.366;2022-08-20T10:53:02;5.93;;;2.13;;
69485;SDS011;56677;51.710;5.366;2022-08-20T10:55:27;7.20;;;2.20;;
69485;SDS011;56677;51.710;5.366;2022-08-20T10:57:52;5.72;;;2.30;;
69485;SDS011;56677;51.710;5.366;2022-08-20T11:00:17;6.22;;;2.17;;
69485;SDS011;56677;51.710;5.366;2022-08-20T11:02:42;6.37;;;2.23;;
69485;SDS011;56677;51.710;5.366;2022-08-20T11:05:08;5.70;;;1.90;;
69485;SDS011;56677;51.710;5.366;2022-08-20T11:07:34;5.23;;;1.90;;
69485;SDS011;56677;51.710;5.366;2022-08-20T11:10:00;5.47;;;1.50;;
69485;SDS011;56677;51.710;5.366;2022-08-20T11:12:25;7.53;;;1.85;;
69485;SDS011;56677;51.710;5.366;2022-08-20T11:14:50;5.93;;;1.90;;
69485;SDS011;56677;51.710;5.366;2022-08-20T11:17:35;6.43;;;2.47;;
69485;SDS011;56677;51.710;5.366;2022-08-20T11:20:01;6.65;;;2.30;;
69485;SDS011;56677;51.710;5.366;2022-08-20T11:22:26;4.80;;;1.70;;
69485;SDS011;56677;51.710;5.366;2022-08-20T11:24:52;4.53;;;2.30;;
69485;SDS011;56677;51.710;5.366;2022-08-20T11:27:21;6.35;;;2.17;;
69485;SDS011;56677;51.710;5.366;2022-08-20T11:29:46;4.90;;;2.03;;
69485;SDS011;56677;51.710;5.366;2022-08-20T11:32:12;7.17;;;2.20;;
69485;SDS011;56677;51.710;5.366;2022-08-20T11:34:37;4.80;;;2.15;;
69485;SDS011;56677;51.710;5.366;2022-08-20T11:37:02;6.00;;;1.90;;
69485;SDS011;56677;51.710;5.366;2022-08-20T11:39:27;6.28;;;1.90;;
69485;SDS011;56677;51.710;5.366;2022-08-20T11:41:52;4.88;;;1.80;;
69485;SDS011;56677;51.710;5.366;2022-08-20T11:44:17;4.85;;;2.08;;
69485;SDS011;56677;51.710;5.366;2022-08-20T11:46:42;5.63;;;2.13;;
69485;SDS011;56677;51.710;5.366;2022-08-20T11:49:07;5.72;;;2.08;;
69485;SDS011;56677;51.710;5.366;2022-08-20T11:51:32;6.97;;;1.85;;
69485;SDS011;56677;51.710;5.366;2022-08-20T11:53:58;4.78;;;2.17;;
69485;SDS011;56677;51.710;5.366;2022-08-20T11:56:23;6.60;;;1.80;;
69485;SDS011;56677;51.710;5.366;2022-08-20T11:58:48;5.68;;;1.85;;
69485;SDS011;56677;51.710;5.366;2022-08-20T12:01:13;5.40;;;1.90;;
69485;SDS011;56677;51.710;5.366;2022-08-20T12:03:38;6.70;;;1.80;;
69485;SDS011;56677;51.710;5.366;2022-08-20T12:06:03;4.15;;;1.65;;
69485;SDS011;56677;51.710;5.366;2022-08-20T12:08:29;5.27;;;2.07;;
69485;SDS011;56677;51.710;5.366;2022-08-20T12:10:55;5.83;;;2.27;;
69485;SDS011;56677;51.710;5.366;2022-08-20T12:13:20;4.95;;;1.70;;
69485;SDS011;56677;51.710;5.366;2022-08-20T12:15:45;4.57;;;1.63;;
69485;SDS011;56677;51.710;5.366;2022-08-20T12:18:10;5.45;;;1.90;;
69485;SDS011;56677;51.710;5.366;2022-08-20T12:20:36;5.35;;;2.10;;
69485;SDS011;56677;51.710;5.366;2022-08-20T12:23:01;3.63;;;1.53;;
69485;SDS011;56677;51.710;5.366;2022-08-20T12:25:27;4.57;;;1.98;;
69485;SDS011;56677;51.710;5.366;2022-08-20T12:27:52;4.78;;;1.83;;
69485;SDS011;56677;51.710;5.366;2022-08-20T12:30:19;3.23;;;1.87;;
69485;SDS011;56677;51.710;5.366;2022-08-20T12:32:44;4.65;;;2.05;;
69485;SDS011;56677;51.710;5.366;2022-08-20T12:35:10;5.73;;;2.00;;
69485;SDS011;56677;51.710;5.366;2022-08-20T12:37:35;3.25;;;1.75;;
69485;SDS011;56677;51.710;5.366;2022-08-20T12:40:03;6.73;;;1.80;;
69485;SDS011;56677;51.710;5.366;2022-08-20T12:42:28;4.78;;;1.63;;
69485;SDS011;56677;51.710;5.366;2022-08-20T12:44:53;4.40;;;1.60;;
69485;SDS011;56677;51.710;5.366;2022-08-20T12:47:23;3.67;;;1.73;;
69485;SDS011;56677;51.710;5.366;2022-08-20T12:49:50;4.10;;;1.95;;
69485;SDS011;56677;51.710;5.366;2022-08-20T12:52:16;4.20;;;1.97;;
69485;SDS011;56677;51.710;5.366;2022-08-20T12:54:41;4.75;;;2.00;;
69485;SDS011;56677;51.710;5.366;2022-08-20T12:57:11;3.80;;;1.75;;
69485;SDS011;56677;51.710;5.366;2022-08-20T12:59:36;4.40;;;1.67;;
69485;SDS011;56677;51.710;5.366;2022-08-20T13:02:02;4.18;;;1.70;;
69485;SDS011;56677;51.710;5.366;2022-08-20T13:04:27;3.97;;;1.73;;
69485;SDS011;56677;51.710;5.366;2022-08-20T13:06:52;5.18;;;1.63;;
69485;SDS011;56677;51.710;5.366;2022-08-20T13:09:17;4.00;;;2.00;;
69485;SDS011;56677;51.710;5.366;2022-08-20T13:11:42;6.07;;;2.15;;
69485;SDS011;56677;51.710;5.366;2022-08-20T13:14:07;3.80;;;1.40;;
69485;SDS011;56677;51.710;5.366;2022-08-20T13:16:32;4.82;;;1.73;;
69485;SDS011;56677;51.710;5.366;2022-08-20T13:18:58;2.93;;;1.73;;
69485;SDS011;56677;51.710;5.366;2022-08-20T13:21:23;3.70;;;1.77;;
69485;SDS011;56677;51.710;5.366;2022-08-20T13:23:48;3.78;;;1.90;;
69485;SDS011;56677;51.710;5.366;2022-08-20T13:26:13;4.43;;;1.90;;
69485;SDS011;56677;51.710;5.366;2022-08-20T13:28:38;4.63;;;1.73;;
69485;SDS011;56677;51.710;5.366;2022-08-20T13:31:03;3.22;;;1.48;;
69485;SDS011;56677;51.710;5.366;2022-08-20T13:33:28;2.88;;;1.48;;
69485;SDS011;56677;51.710;5.366;2022-08-20T13:35:54;4.43;;;1.80;;
69485;SDS011;56677;51.710;5.366;2022-08-20T13:38:19;5.07;;;1.73;;
69485;SDS011;56677;51.710;5.366;2022-08-20T13:40:44;4.50;;;1.90;;
69485;SDS011;56677;51.710;5.366;2022-08-20T13:43:09;4.30;;;1.80;;
69485;SDS011;56677;51.710;5.366;2022-08-20T13:45:35;4.30;;;1.98;;
69485;SDS011;56677;51.710;5.366;2022-08-20T13:48:00;4.45;;;1.73;;
69485;SDS011;56677;51.710;5.366;2022-08-20T13:50:26;3.83;;;1.57;;
69485;SDS011;56677;51.710;5.366;2022-08-20T13:52:51;4.37;;;2.00;;
69485;SDS011;56677;51.710;5.366;2022-08-20T13:55:17;4.38;;;1.85;;
69485;SDS011;56677;51.710;5.366;2022-08-20T13:57:42;3.63;;;1.85;;
69485;SDS011;56677;51.710;5.366;2022-08-20T14:00:09;4.93;;;2.03;;
69485;SDS011;56677;51.710;5.366;2022-08-20T14:02:34;4.80;;;1.65;;
69485;SDS011;56677;51.710;5.366;2022-08-20T14:04:59;6.53;;;1.97;;
69485;SDS011;56677;51.710;5.366;2022-08-20T14:07:26;5.30;;;1.70;;
69485;SDS011;56677;51.710;5.366;2022-08-20T14:09:56;4.90;;;1.75;;
69485;SDS011;56677;51.710;5.366;2022-08-20T14:12:21;6.05;;;2.00;;
69485;SDS011;56677;51.710;5.366;2022-08-20T14:14:47;6.43;;;2.27;;
69485;SDS011;56677;51.710;5.366;2022-08-20T14:19:37;4.95;;;2.22;;
69485;SDS011;56677;51.710;5.366;2022-08-20T14:22:02;5.95;;;1.83;;
69485;SDS011;56677;51.710;5.366;2022-08-20T14:24:27;7.88;;;2.20;;
69485;SDS011;56677;51.710;5.366;2022-08-20T14:26:52;6.15;;;2.20;;
69485;SDS011;56677;51.710;5.366;2022-08-20T14:29:17;7.28;;;2.22;;
69485;SDS011;56677;51.710;5.366;2022-08-20T14:31:42;5.68;;;1.67;;
69485;SDS011;56677;51.710;5.366;2022-08-20T14:34:07;6.83;;;2.13;;
69485;SDS011;56677;51.710;5.366;2022-08-20T14:36:32;8.45;;;1.98;;
69485;SDS011;56677;51.710;5.366;2022-08-20T14:38:57;6.22;;;1.85;;
69485;SDS011;56677;51.710;5.366;2022-08-20T14:41:23;7.95;;;2.05;;
69485;SDS011;56677;51.710;5.366;2022-08-20T14:43:48;7.47;;;1.98;;